Time;durP1;ratioP1;P1;durP2;ratioP2;P2;SDS_P1;SDS_P2;PMS_P1;PMS_P2;Temp;Humidity;BMP_temperature;BMP_pressure;BME280_temperature;BME280_humidity;BME280_pressure;Samples;Min_cycle;Max_cycle;Signal;HPM_P1;HPM_P2
2022/03/07 00:00:41;;;;;;;0.20;0.20;;;;;;;;;;4997849;28;20114;-77
2022/03/07 00:03:08;;;;;;;0.00;0.00;;;;;;;;;;4982800;28;20050;-78
2022/03/07 00:05:34;;;;;;;0.00;0.00;;;;;;;;;;4983748;28;20042;-78
2022/03/07 00:07:59;;;;;;;0.32;0.32;;;;;;;;;;4990149;28;20073;-78
2022/03/07 00:10:27;;;;;;;0.40;0.40;;;;;;;;;;4988413;28;20632;-79
2022/03/07 00:12:52;;;;;;;0.20;0.20;;;;;;;;;;4990696;28;20120;-78
2022/03/07 00:15:19;;;;;;;0.45;0.45;;;;;;;;;;4986405;28;20524;-78
2022/03/07 00:17:44;;;;;;;0.30;0.30;;;;;;;;;;4990378;28;20157;-79
2022/03/07 00:20:13;;;;;;;1.13;1.02;;;;;;;;;;4987964;28;20106;-79
2022/03/07 00:22:38;;;;;;;0.10;0.10;;;;;;;;;;4990527;28;20022;-79
2022/03/07 00:25:04;;;;;;;0.15;0.15;;;;;;;;;;4983142;28;20087;-78
2022/03/07 00:27:29;;;;;;;1.10;1.10;;;;;;;;;;4980106;28;20066;-79
2022/03/07 00:29:55;;;;;;;0.20;0.20;;;;;;;;;;4992968;28;20042;-78
2022/03/07 00:32:22;;;;;;;0.05;0.05;;;;;;;;;;4982867;28;20030;-77
2022/03/07 00:34:48;;;;;;;0.13;0.13;;;;;;;;;;4983937;28;20033;-76
2022/03/07 00:37:14;;;;;;;0.50;0.50;;;;;;;;;;4987547;28;20030;-77
2022/03/07 00:39:42;;;;;;;2.03;1.88;;;;;;;;;;4994813;28;20042;-78
2022/03/07 00:42:11;;;;;;;0.10;0.10;;;;;;;;;;4988837;28;20092;-79
2022/03/07 00:44:36;;;;;;;0.40;0.40;;;;;;;;;;4988185;28;20397;-78
2022/03/07 00:47:02;;;;;;;0.10;0.10;;;;;;;;;;4987157;28;20033;-78
2022/03/07 00:49:27;;;;;;;0.30;0.30;;;;;;;;;;4989339;28;20513;-79
2022/03/07 00:51:53;;;;;;;0.15;0.15;;;;;;;;;;4987065;28;20054;-77
2022/03/07 00:54:18;;;;;;;0.10;0.10;;;;;;;;;;4986436;28;20117;-77
2022/03/07 00:56:43;;;;;;;0.47;0.47;;;;;;;;;;4983869;28;20354;-77
2022/03/07 00:59:09;;;;;;;1.33;1.30;;;;;;;;;;4984724;28;20070;-78
2022/03/07 01:01:34;;;;;;;0.30;0.20;;;;;;;;;;4985996;28;20022;-77
2022/03/07 01:04:02;;;;;;;0.20;0.20;;;;;;;;;;4967982;28;20044;-78
2022/03/07 01:06:27;;;;;;;0.85;0.77;;;;;;;;;;4988089;28;20053;-78
2022/03/07 01:08:52;;;;;;;0.10;0.10;;;;;;;;;;4989183;28;20449;-80
2022/03/07 01:11:18;;;;;;;0.55;0.55;;;;;;;;;;4986903;28;20043;-79
2022/03/07 01:13:43;;;;;;;0.93;0.85;;;;;;;;;;4979904;28;20026;-78
2022/03/07 01:16:11;;;;;;;0.57;0.45;;;;;;;;;;4999876;28;20037;-78
2022/03/07 01:18:37;;;;;;;0.20;0.20;;;;;;;;;;4983641;28;20499;-79
2022/03/07 01:21:04;;;;;;;0.25;0.25;;;;;;;;;;4988168;28;20038;-79
2022/03/07 01:23:32;;;;;;;0.20;0.20;;;;;;;;;;4983876;28;20061;-79
2022/03/07 01:26:02;;;;;;;0.20;0.20;;;;;;;;;;4987878;28;20034;-78
2022/03/07 01:28:29;;;;;;;0.55;0.55;;;;;;;;;;4980333;28;20031;-79
2022/03/07 01:30:55;;;;;;;0.00;0.00;;;;;;;;;;4989103;28;20342;-78
2022/03/07 01:33:20;;;;;;;0.25;0.25;;;;;;;;;;4986360;28;20049;-79
2022/03/07 01:35:47;;;;;;;0.45;0.45;;;;;;;;;;4984019;28;20023;-79
2022/03/07 01:38:13;;;;;;;0.20;0.20;;;;;;;;;;4984415;28;20030;-78
2022/03/07 01:40:41;;;;;;;0.35;0.35;;;;;;;;;;4980639;28;20027;-79
2022/03/07 01:43:07;;;;;;;0.08;0.08;;;;;;;;;;4988350;28;20010;-79
2022/03/07 01:45:33;;;;;;;0.00;0.00;;;;;;;;;;4979973;28;20058;-78
2022/03/07 01:48:03;;;;;;;0.00;0.00;;;;;;;;;;4972219;28;20112;-78
2022/03/07 01:50:31;;;;;;;0.80;0.80;;;;;;;;;;4981088;28;20030;-80
2022/03/07 01:52:56;;;;;;;0.32;0.32;;;;;;;;;;4977304;28;20018;-80
2022/03/07 01:55:22;;;;;;;0.43;0.43;;;;;;;;;;4989998;28;20385;-79
2022/03/07 01:57:49;;;;;;;0.43;0.43;;;;;;;;;;4972835;28;20438;-79
2022/03/07 02:00:20;;;;;;;0.47;0.47;;;;;;;;;;4984622;28;20062;-78
2022/03/07 02:02:45;;;;;;;0.20;0.20;;;;;;;;;;4988160;28;20030;-78
2022/03/07 02:05:11;;;;;;;2.47;1.30;;;;;;;;;;4988105;28;20093;-79
2022/03/07 02:07:37;;;;;;;0.52;0.52;;;;;;;;;;4979212;28;20034;-78
2022/03/07 02:10:06;;;;;;;0.98;0.98;;;;;;;;;;4983650;28;20640;-79
2022/03/07 02:12:34;;;;;;;2.35;0.98;;;;;;;;;;4986054;28;20450;-78
2022/03/07 02:15:03;;;;;;;0.52;0.52;;;;;;;;;;4995750;28;20070;-78
2022/03/07 02:17:33;;;;;;;1.23;1.10;;;;;;;;;;4985907;28;20414;-78
2022/03/07 02:19:58;;;;;;;1.15;1.13;;;;;;;;;;4986602;28;20030;-78
2022/03/07 02:22:23;;;;;;;0.25;0.25;;;;;;;;;;4977652;28;20035;-78
2022/03/07 02:24:49;;;;;;;0.65;0.65;;;;;;;;;;4988605;28;20030;-81
2022/03/07 02:27:18;;;;;;;0.50;0.50;;;;;;;;;;4985018;28;20042;-77
2022/03/07 02:29:47;;;;;;;0.35;0.35;;;;;;;;;;4993614;28;20073;-78
2022/03/07 02:32:13;;;;;;;0.70;0.70;;;;;;;;;;4989019;28;20053;-79
2022/03/07 02:34:39;;;;;;;0.30;0.30;;;;;;;;;;4988031;28;20114;-78
2022/03/07 02:37:05;;;;;;;0.60;0.60;;;;;;;;;;4987001;28;20489;-77
2022/03/07 02:39:30;;;;;;;0.50;0.50;;;;;;;;;;4989413;28;20022;-78
2022/03/07 02:41:56;;;;;;;0.63;0.43;;;;;;;;;;4982914;28;20023;-78
2022/03/07 02:44:24;;;;;;;0.85;0.85;;;;;;;;;;4989428;28;20460;-76
2022/03/07 02:46:49;;;;;;;1.48;1.27;;;;;;;;;;4995158;28;20037;-77
2022/03/07 02:49:15;;;;;;;0.82;0.82;;;;;;;;;;4989597;28;20077;-77
2022/03/07 02:51:40;;;;;;;0.30;0.30;;;;;;;;;;4986323;28;20492;-77
2022/03/07 02:54:06;;;;;;;0.10;0.10;;;;;;;;;;4980655;28;20034;-77
2022/03/07 02:56:31;;;;;;;0.20;0.20;;;;;;;;;;4978642;28;20465;-77
2022/03/07 02:58:57;;;;;;;1.13;1.13;;;;;;;;;;4995590;28;20022;-76
2022/03/07 03:01:22;;;;;;;0.32;0.32;;;;;;;;;;4987801;28;20035;-77
2022/03/07 03:03:47;;;;;;;0.17;0.17;;;;;;;;;;4999993;28;20030;-76
2022/03/07 03:06:15;;;;;;;0.98;0.55;;;;;;;;;;4989567;28;20027;-77
2022/03/07 03:08:43;;;;;;;0.45;0.45;;;;;;;;;;4985827;28;20104;-77
2022/03/07 03:11:08;;;;;;;0.60;0.38;;;;;;;;;;4988992;28;20390;-77
2022/03/07 03:13:33;;;;;;;0.00;0.00;;;;;;;;;;4980115;28;20660;-78
2022/03/07 03:15:59;;;;;;;0.03;0.03;;;;;;;;;;4984781;28;20022;-78
2022/03/07 03:18:24;;;;;;;0.90;0.90;;;;;;;;;;4984965;28;20090;-78
2022/03/07 03:20:51;;;;;;;0.82;0.82;;;;;;;;;;4989987;28;20034;-78
2022/03/07 03:23:17;;;;;;;0.57;0.57;;;;;;;;;;4985526;28;20041;-78
2022/03/07 03:25:43;;;;;;;0.68;0.65;;;;;;;;;;4992976;28;20516;-78
2022/03/07 03:28:12;;;;;;;0.30;0.30;;;;;;;;;;4987023;28;20122;-77
2022/03/07 03:30:37;;;;;;;0.68;0.68;;;;;;;;;;4981492;28;20030;-77
2022/03/07 03:33:02;;;;;;;0.60;0.57;;;;;;;;;;4989829;28;20030;-78
2022/03/07 03:35:30;;;;;;;0.35;0.35;;;;;;;;;;4987480;28;20034;-78
2022/03/07 03:37:56;;;;;;;0.10;0.10;;;;;;;;;;4983986;28;20022;-78
2022/03/07 03:40:21;;;;;;;0.10;0.10;;;;;;;;;;4985420;28;20387;-77
2022/03/07 03:42:49;;;;;;;2.15;1.67;;;;;;;;;;4984163;28;20031;-78
2022/03/07 03:45:14;;;;;;;0.30;0.30;;;;;;;;;;4988982;28;20030;-77
2022/03/07 03:47:42;;;;;;;0.22;0.22;;;;;;;;;;4993674;28;20033;-77
2022/03/07 03:50:10;;;;;;;0.60;0.60;;;;;;;;;;4991759;28;20041;-78
2022/03/07 03:52:38;;;;;;;0.68;0.68;;;;;;;;;;4995162;28;20626;-78
2022/03/07 03:55:05;;;;;;;0.57;0.57;;;;;;;;;;4987859;28;20066;-78
2022/03/07 03:57:35;;;;;;;0.00;0.00;;;;;;;;;;4985085;28;20343;-78
2022/03/07 04:00:01;;;;;;;0.22;0.22;;;;;;;;;;4981487;28;20039;-77
2022/03/07 04:02:26;;;;;;;0.00;0.00;;;;;;;;;;4984787;28;20025;-77
2022/03/07 04:04:53;;;;;;;0.20;0.20;;;;;;;;;;4988290;28;20032;-77
2022/03/07 04:07:19;;;;;;;0.08;0.08;;;;;;;;;;4987850;28;20026;-78
2022/03/07 04:09:49;;;;;;;0.20;0.20;;;;;;;;;;4985617;28;20040;-78
2022/03/07 04:12:17;;;;;;;0.45;0.45;;;;;;;;;;4983731;28;20358;-77
2022/03/07 04:14:42;;;;;;;0.63;0.63;;;;;;;;;;4985127;28;20458;-77
2022/03/07 04:17:10;;;;;;;0.00;0.00;;;;;;;;;;4990076;28;20061;-76
2022/03/07 04:19:36;;;;;;;0.10;0.10;;;;;;;;;;4993312;28;20446;-76
2022/03/07 04:22:06;;;;;;;0.20;0.20;;;;;;;;;;4991047;28;20057;-77
2022/03/07 04:24:32;;;;;;;0.20;0.20;;;;;;;;;;4983153;28;20088;-77
2022/03/07 04:27:01;;;;;;;0.70;0.70;;;;;;;;;;4991290;28;20118;-77
2022/03/07 04:29:26;;;;;;;0.30;0.30;;;;;;;;;;4993125;28;20022;-78
2022/03/07 04:31:54;;;;;;;0.20;0.20;;;;;;;;;;4984048;28;20526;-78
2022/03/07 04:34:19;;;;;;;0.05;0.05;;;;;;;;;;4990539;28;20042;-78
2022/03/07 04:36:49;;;;;;;0.32;0.30;;;;;;;;;;4987364;28;20510;-78
2022/03/07 04:39:15;;;;;;;0.35;0.35;;;;;;;;;;4986318;28;20178;-78
2022/03/07 04:41:44;;;;;;;1.27;0.52;;;;;;;;;;4988703;28;20070;-78
2022/03/07 04:44:10;;;;;;;0.40;0.40;;;;;;;;;;4984964;28;20442;-77
2022/03/07 04:46:35;;;;;;;0.95;0.85;;;;;;;;;;4985519;28;20039;-78
2022/03/07 04:49:01;;;;;;;1.88;1.63;;;;;;;;;;4983078;28;20019;-78
2022/03/07 04:51:28;;;;;;;0.50;0.50;;;;;;;;;;4986170;28;20462;-77
2022/03/07 04:53:53;;;;;;;4.05;0.98;;;;;;;;;;4988835;28;20370;-78
2022/03/07 04:56:19;;;;;;;0.40;0.40;;;;;;;;;;4985109;28;20026;-78
2022/03/07 04:58:44;;;;;;;0.00;0.00;;;;;;;;;;4991702;28;20454;-77
2022/03/07 05:01:09;;;;;;;0.55;0.55;;;;;;;;;;4985296;28;20346;-77
2022/03/07 05:03:35;;;;;;;0.28;0.28;;;;;;;;;;4987975;28;21669;-77
2022/03/07 05:06:01;;;;;;;0.63;0.63;;;;;;;;;;4990355;28;20057;-78
2022/03/07 05:08:26;;;;;;;0.88;0.88;;;;;;;;;;4991357;28;20026;-77
2022/03/07 05:10:51;;;;;;;0.17;0.17;;;;;;;;;;4993767;28;20456;-78
2022/03/07 05:13:19;;;;;;;0.30;0.30;;;;;;;;;;4988996;28;20131;-78
2022/03/07 05:15:44;;;;;;;0.03;0.03;;;;;;;;;;4983420;28;20335;-78
2022/03/07 05:18:13;;;;;;;0.08;0.08;;;;;;;;;;4991647;28;20033;-78
2022/03/07 05:20:38;;;;;;;0.05;0.05;;;;;;;;;;4985972;28;20022;-77
2022/03/07 05:23:04;;;;;;;0.75;0.75;;;;;;;;;;4987519;28;20338;-78
2022/03/07 05:25:31;;;;;;;1.17;0.80;;;;;;;;;;4986760;28;20038;-78
2022/03/07 05:27:57;;;;;;;0.10;0.10;;;;;;;;;;4992889;28;20512;-78
2022/03/07 05:30:23;;;;;;;0.00;0.00;;;;;;;;;;4990878;28;20113;-77
2022/03/07 05:32:51;;;;;;;0.63;0.63;;;;;;;;;;4982621;28;20023;-79
2022/03/07 05:35:21;;;;;;;0.00;0.00;;;;;;;;;;4984893;28;20104;-77
2022/03/07 05:37:48;;;;;;;1.20;0.70;;;;;;;;;;4974087;28;20466;-78
2022/03/07 05:40:15;;;;;;;2.55;1.13;;;;;;;;;;4990249;28;20033;-77
2022/03/07 05:42:41;;;;;;;0.32;0.32;;;;;;;;;;4979675;28;20027;-76
2022/03/07 05:45:08;;;;;;;0.00;0.00;;;;;;;;;;4981297;28;20381;-77
2022/03/07 05:47:34;;;;;;;0.15;0.15;;;;;;;;;;4973508;28;20036;-78
2022/03/07 05:49:59;;;;;;;0.25;0.25;;;;;;;;;;4986989;28;20030;-77
2022/03/07 05:52:25;;;;;;;0.47;0.47;;;;;;;;;;4983808;28;20124;-77
2022/03/07 05:54:50;;;;;;;0.85;0.82;;;;;;;;;;4984495;28;20030;-77
2022/03/07 05:57:18;;;;;;;0.47;0.47;;;;;;;;;;4981871;28;20074;-78
2022/03/07 05:59:43;;;;;;;0.65;0.65;;;;;;;;;;4996395;28;20133;-78
2022/03/07 06:02:09;;;;;;;0.00;0.00;;;;;;;;;;4993791;28;20054;-77
2022/03/07 06:04:34;;;;;;;0.15;0.15;;;;;;;;;;4986340;28;20126;-78
2022/03/07 06:06:59;;;;;;;0.00;0.00;;;;;;;;;;4986381;28;20038;-77
2022/03/07 06:09:24;;;;;;;0.10;0.10;;;;;;;;;;4985768;28;20365;-77
2022/03/07 06:11:52;;;;;;;0.00;0.00;;;;;;;;;;4992037;28;20089;-77
2022/03/07 06:14:20;;;;;;;2.55;1.85;;;;;;;;;;4984315;28;20030;-77
2022/03/07 06:16:45;;;;;;;0.28;0.28;;;;;;;;;;4981729;28;20078;-78
2022/03/07 06:19:10;;;;;;;0.20;0.20;;;;;;;;;;4977058;28;20101;-76
2022/03/07 06:21:36;;;;;;;0.08;0.08;;;;;;;;;;4983838;28;20112;-76
2022/03/07 06:24:01;;;;;;;0.10;0.10;;;;;;;;;;4991455;28;20037;-77
2022/03/07 06:26:29;;;;;;;0.22;0.22;;;;;;;;;;4991121;28;20089;-79
2022/03/07 06:28:54;;;;;;;0.25;0.25;;;;;;;;;;4977528;28;20081;-78
2022/03/07 06:31:22;;;;;;;0.60;0.60;;;;;;;;;;4993442;28;20038;-77
2022/03/07 06:33:49;;;;;;;0.20;0.20;;;;;;;;;;4983789;28;20030;-78
2022/03/07 06:36:17;;;;;;;0.13;0.13;;;;;;;;;;4983589;28;20022;-78
2022/03/07 06:38:45;;;;;;;0.43;0.43;;;;;;;;;;4988162;28;20034;-78
2022/03/07 06:41:10;;;;;;;0.17;0.17;;;;;;;;;;4975817;28;20412;-77
2022/03/07 06:43:37;;;;;;;0.40;0.40;;;;;;;;;;4983706;28;20038;-78
2022/03/07 06:46:04;;;;;;;1.20;1.10;;;;;;;;;;4983473;28;20481;-78
2022/03/07 06:48:30;;;;;;;0.30;0.30;;;;;;;;;;4981701;28;20026;-77
2022/03/07 06:50:55;;;;;;;0.35;0.35;;;;;;;;;;4985963;28;20365;-76
2022/03/07 06:53:23;;;;;;;1.15;1.08;;;;;;;;;;4992010;28;20113;-78
2022/03/07 06:55:48;;;;;;;0.50;0.50;;;;;;;;;;4983342;28;20031;-79
2022/03/07 06:58:16;;;;;;;0.47;0.35;;;;;;;;;;4991438;28;20033;-78
2022/03/07 07:00:41;;;;;;;0.20;0.20;;;;;;;;;;4988560;28;20038;-77
2022/03/07 07:03:07;;;;;;;0.00;0.00;;;;;;;;;;4989722;28;20026;-79
2022/03/07 07:05:34;;;;;;;0.22;0.22;;;;;;;;;;4996376;28;20409;-79
2022/03/07 07:08:00;;;;;;;0.00;0.00;;;;;;;;;;4988276;28;20049;-79
2022/03/07 07:10:25;;;;;;;0.60;0.60;;;;;;;;;;4982403;28;20457;-78
2022/03/07 07:12:51;;;;;;;0.10;0.10;;;;;;;;;;4988789;28;20510;-79
2022/03/07 07:15:17;;;;;;;0.13;0.13;;;;;;;;;;4989722;28;20514;-79
2022/03/07 07:17:45;;;;;;;3.30;1.33;;;;;;;;;;4981613;28;20366;-77
2022/03/07 07:20:11;;;;;;;0.73;0.68;;;;;;;;;;4986719;28;20034;-79
2022/03/07 07:22:37;;;;;;;0.30;0.30;;;;;;;;;;4994835;28;20071;-78
2022/03/07 07:25:06;;;;;;;1.33;0.98;;;;;;;;;;4985512;28;20034;-79
2022/03/07 07:27:31;;;;;;;0.73;0.73;;;;;;;;;;4980827;28;20030;-79
2022/03/07 07:29:57;;;;;;;3.75;1.52;;;;;;;;;;4988220;28;20034;-78
2022/03/07 07:32:25;;;;;;;0.28;0.28;;;;;;;;;;4995963;28;20042;-78
2022/03/07 07:34:51;;;;;;;0.73;0.73;;;;;;;;;;4993078;28;20038;-78
2022/03/07 07:37:16;;;;;;;0.40;0.40;;;;;;;;;;4985472;28;20027;-79
2022/03/07 07:39:41;;;;;;;2.63;1.70;;;;;;;;;;4987055;28;20033;-78
2022/03/07 07:42:07;;;;;;;0.55;0.55;;;;;;;;;;4985866;28;20050;-78
2022/03/07 07:44:32;;;;;;;1.65;1.55;;;;;;;;;;4976893;28;20055;-78
2022/03/07 07:46:59;;;;;;;0.77;0.77;;;;;;;;;;4986446;28;20450;-78
2022/03/07 07:49:27;;;;;;;1.73;1.63;;;;;;;;;;4984806;28;20026;-78
2022/03/07 07:51:53;;;;;;;0.10;0.10;;;;;;;;;;4992863;28;20085;-79
2022/03/07 07:54:18;;;;;;;0.30;0.30;;;;;;;;;;4990163;28;20361;-78
2022/03/07 07:56:44;;;;;;;0.75;0.70;;;;;;;;;;4995746;28;20054;-78
2022/03/07 07:59:12;;;;;;;0.70;0.70;;;;;;;;;;4983228;28;20037;-79
2022/03/07 08:01:37;;;;;;;0.30;0.30;;;;;;;;;;4994890;28;20088;-79
2022/03/07 08:04:07;;;;;;;0.20;0.20;;;;;;;;;;4987285;28;20038;-78
2022/03/07 08:06:35;;;;;;;0.45;0.45;;;;;;;;;;4996533;28;20112;-77
2022/03/07 08:09:04;;;;;;;0.75;0.50;;;;;;;;;;4992203;28;20113;-78
2022/03/07 08:11:31;;;;;;;0.15;0.15;;;;;;;;;;4986353;28;20041;-78
2022/03/07 08:14:01;;;;;;;0.30;0.30;;;;;;;;;;4991047;28;20034;-78
2022/03/07 08:16:29;;;;;;;0.32;0.32;;;;;;;;;;4987924;28;20045;-78
2022/03/07 08:18:54;;;;;;;0.98;0.98;;;;;;;;;;4983005;28;20361;-79
2022/03/07 08:21:25;;;;;;;0.38;0.30;;;;;;;;;;4987716;28;20040;-79
2022/03/07 08:23:56;;;;;;;0.30;0.30;;;;;;;;;;4987306;28;20032;-78
2022/03/07 08:26:24;;;;;;;0.22;0.22;;;;;;;;;;4991757;28;20056;-78
2022/03/07 08:28:51;;;;;;;0.98;0.52;;;;;;;;;;4983409;28;20054;-79
2022/03/07 08:31:17;;;;;;;1.00;0.90;;;;;;;;;;4988108;28;20034;-77
2022/03/07 08:33:42;;;;;;;0.77;0.77;;;;;;;;;;4982882;28;20114;-78
2022/03/07 08:36:08;;;;;;;0.10;0.10;;;;;;;;;;4986159;28;20118;-78
2022/03/07 08:38:34;;;;;;;0.40;0.40;;;;;;;;;;4980061;28;20058;-79
2022/03/07 08:41:00;;;;;;;0.35;0.30;;;;;;;;;;4986159;28;20042;-78
2022/03/07 08:43:25;;;;;;;0.65;0.43;;;;;;;;;;4991315;28;20080;-78
2022/03/07 08:45:51;;;;;;;1.02;0.75;;;;;;;;;;4988036;28;20032;-78
2022/03/07 08:48:16;;;;;;;0.90;0.40;;;;;;;;;;4981870;28;20118;-78
2022/03/07 08:50:42;;;;;;;0.47;0.47;;;;;;;;;;4982132;28;20045;-81
2022/03/07 08:53:07;;;;;;;0.50;0.50;;;;;;;;;;4981402;28;20033;-79
2022/03/07 08:55:32;;;;;;;1.45;0.43;;;;;;;;;;4989547;28;20034;-80
2022/03/07 08:57:58;;;;;;;0.45;0.45;;;;;;;;;;4982360;28;20037;-79
2022/03/07 09:00:26;;;;;;;0.93;0.85;;;;;;;;;;5006018;28;20085;-80
2022/03/07 09:02:51;;;;;;;0.15;0.15;;;;;;;;;;4987814;28;20469;-81
2022/03/07 09:05:19;;;;;;;0.57;0.57;;;;;;;;;;4992075;28;20034;-79
2022/03/07 09:07:44;;;;;;;0.20;0.20;;;;;;;;;;4989487;28;20026;-80
2022/03/07 09:10:12;;;;;;;0.30;0.30;;;;;;;;;;4982901;28;20027;-79
2022/03/07 09:12:37;;;;;;;0.45;0.45;;;;;;;;;;5001235;28;20037;-80
2022/03/07 09:15:04;;;;;;;0.55;0.30;;;;;;;;;;4990614;28;20030;-79
2022/03/07 09:17:32;;;;;;;0.17;0.17;;;;;;;;;;4987579;28;20031;-81
2022/03/07 09:19:59;;;;;;;0.40;0.40;;;;;;;;;;4993031;28;20041;-80
2022/03/07 09:22:25;;;;;;;0.40;0.40;;;;;;;;;;4977205;28;20041;-79
2022/03/07 09:24:52;;;;;;;0.30;0.30;;;;;;;;;;4992671;28;20026;-78
2022/03/07 09:27:17;;;;;;;0.00;0.00;;;;;;;;;;4984573;28;20462;-79
2022/03/07 09:29:43;;;;;;;0.30;0.30;;;;;;;;;;4988902;28;20038;-79
2022/03/07 09:32:08;;;;;;;0.20;0.20;;;;;;;;;;4993138;28;20027;-80
2022/03/07 09:34:34;;;;;;;0.20;0.20;;;;;;;;;;4997845;28;20037;-79
2022/03/07 09:37:00;;;;;;;0.00;0.00;;;;;;;;;;4996048;28;20131;-78
2022/03/07 09:39:28;;;;;;;0.08;0.08;;;;;;;;;;4974197;28;20441;-79
2022/03/07 09:41:54;;;;;;;0.00;0.00;;;;;;;;;;4990893;28;20450;-79
2022/03/07 09:44:21;;;;;;;0.13;0.13;;;;;;;;;;4992842;28;20030;-80
2022/03/07 09:46:49;;;;;;;0.10;0.10;;;;;;;;;;5001288;28;20027;-78
2022/03/07 09:49:14;;;;;;;0.10;0.10;;;;;;;;;;4986097;28;20026;-78
2022/03/07 09:51:42;;;;;;;0.15;0.15;;;;;;;;;;4982440;28;20105;-79
2022/03/07 09:54:07;;;;;;;0.25;0.25;;;;;;;;;;4988846;28;20108;-79
2022/03/07 09:56:33;;;;;;;0.10;0.10;;;;;;;;;;4988230;28;20454;-79
2022/03/07 09:59:00;;;;;;;0.00;0.00;;;;;;;;;;4970324;28;20026;-79
2022/03/07 10:01:25;;;;;;;0.00;0.00;;;;;;;;;;4979855;28;20114;-79
2022/03/07 10:03:53;;;;;;;0.40;0.40;;;;;;;;;;4988056;28;20418;-79
2022/03/07 10:06:19;;;;;;;0.05;0.03;;;;;;;;;;4987149;28;20105;-81
2022/03/07 10:08:56;;;;;;;0.17;0.17;;;;;;;;;;4997125;28;20497;-79
2022/03/07 10:11:25;;;;;;;0.00;0.00;;;;;;;;;;4981232;28;20038;-80
2022/03/07 10:13:53;;;;;;;0.17;0.17;;;;;;;;;;4985199;28;20041;-80
2022/03/07 10:16:20;;;;;;;0.80;0.30;;;;;;;;;;4988313;28;20081;-80
2022/03/07 10:18:57;;;;;;;0.60;0.60;;;;;;;;;;4976713;28;20033;-80
2022/03/07 10:21:27;;;;;;;0.40;0.40;;;;;;;;;;4983033;28;20039;-77
2022/03/07 10:23:54;;;;;;;0.63;0.63;;;;;;;;;;4988119;28;20043;-79
2022/03/07 10:26:20;;;;;;;1.35;0.73;;;;;;;;;;4986563;28;20141;-80
2022/03/07 10:28:57;;;;;;;0.17;0.17;;;;;;;;;;4988768;28;20122;-79
2022/03/07 10:31:26;;;;;;;0.15;0.15;;;;;;;;;;4985697;28;20039;-80
2022/03/07 10:34:11;;;;;;;0.20;0.17;;;;;;;;;;4977285;28;20046;-80
2022/03/07 10:36:37;;;;;;;0.10;0.10;;;;;;;;;;4984425;28;20101;-80
2022/03/07 10:39:10;;;;;;;0.63;0.47;;;;;;;;;;4987541;28;20209;-79
2022/03/07 10:41:42;;;;;;;0.20;0.20;;;;;;;;;;4988155;28;20389;-81
2022/03/07 10:44:11;;;;;;;0.15;0.15;;;;;;;;;;4992549;28;20564;-80
2022/03/07 10:46:38;;;;;;;0.00;0.00;;;;;;;;;;4979004;28;20046;-81
2022/03/07 10:49:06;;;;;;;1.65;0.63;;;;;;;;;;4980431;28;20045;-80
2022/03/07 10:51:36;;;;;;;0.25;0.20;;;;;;;;;;4984795;28;20045;-80
2022/03/07 10:54:13;;;;;;;0.40;0.40;;;;;;;;;;4991689;28;20034;-80
2022/03/07 10:56:53;;;;;;;0.15;0.15;;;;;;;;;;4989430;28;20027;-82
2022/03/07 10:59:35;;;;;;;0.43;0.43;;;;;;;;;;4991613;28;20105;-81
2022/03/07 11:02:04;;;;;;;0.50;0.40;;;;;;;;;;4988747;28;20083;-80
2022/03/07 11:04:30;;;;;;;0.35;0.35;;;;;;;;;;4989109;28;20026;-82
2022/03/07 11:06:55;;;;;;;0.20;0.17;;;;;;;;;;4990373;28;20322;-81
2022/03/07 11:09:23;;;;;;;0.30;0.30;;;;;;;;;;4980739;28;20110;-80
2022/03/07 11:11:53;;;;;;;0.85;0.32;;;;;;;;;;4993537;28;20026;-79
2022/03/07 11:14:21;;;;;;;0.65;0.65;;;;;;;;;;4990314;28;20030;-80
2022/03/07 11:16:50;;;;;;;1.00;0.32;;;;;;;;;;5000444;28;20025;-79
2022/03/07 11:19:18;;;;;;;0.00;0.00;;;;;;;;;;5001530;28;20038;-83
2022/03/07 11:21:45;;;;;;;0.32;0.32;;;;;;;;;;4984870;28;20022;-82
2022/03/07 11:24:11;;;;;;;0.30;0.28;;;;;;;;;;4971762;28;20073;-82
2022/03/07 11:26:42;;;;;;;0.80;0.70;;;;;;;;;;4985664;28;20077;-81
2022/03/07 11:29:10;;;;;;;0.28;0.28;;;;;;;;;;4998029;28;20029;-81
2022/03/07 11:31:38;;;;;;;0.30;0.30;;;;;;;;;;4987706;28;20133;-80
2022/03/07 11:34:07;;;;;;;0.50;0.47;;;;;;;;;;4989836;28;20090;-81
2022/03/07 11:36:36;;;;;;;0.40;0.40;;;;;;;;;;4996873;28;20066;-79
2022/03/07 11:39:03;;;;;;;0.65;0.65;;;;;;;;;;4983280;28;20023;-80
2022/03/07 11:41:36;;;;;;;0.17;0.17;;;;;;;;;;4982187;28;20023;-81
2022/03/07 11:44:22;;;;;;;1.17;0.30;;;;;;;;;;5012653;28;20034;-81
2022/03/07 11:46:51;;;;;;;0.22;0.22;;;;;;;;;;4984042;28;20041;-81
2022/03/07 11:49:31;;;;;;;1.15;1.02;;;;;;;;;;4981738;28;20454;-80
2022/03/07 11:52:03;;;;;;;0.47;0.40;;;;;;;;;;4995409;28;20129;-79
2022/03/07 11:54:31;;;;;;;0.20;0.20;;;;;;;;;;4988639;28;20030;-81
2022/03/07 11:57:11;;;;;;;0.43;0.43;;;;;;;;;;4982730;28;20125;-81
2022/03/07 11:59:38;;;;;;;0.40;0.40;;;;;;;;;;4990950;28;20493;-81
2022/03/07 12:02:04;;;;;;;0.20;0.20;;;;;;;;;;4992143;28;20093;-81
2022/03/07 12:04:47;;;;;;;0.50;0.40;;;;;;;;;;4986885;28;20027;-81
2022/03/07 12:07:24;;;;;;;0.65;0.50;;;;;;;;;;4984267;28;20046;-80
2022/03/07 12:09:52;;;;;;;1.17;0.85;;;;;;;;;;4988851;28;20088;-81
2022/03/07 12:12:23;;;;;;;0.68;0.68;;;;;;;;;;4985561;28;20034;-81
2022/03/07 12:14:48;;;;;;;2.08;1.10;;;;;;;;;;4994023;28;20026;-80
2022/03/07 12:17:19;;;;;;;3.25;1.27;;;;;;;;;;4993391;28;20030;-81
2022/03/07 12:20:05;;;;;;;0.30;0.30;;;;;;;;;;4994048;28;20018;-80
2022/03/07 12:22:32;;;;;;;0.20;0.13;;;;;;;;;;4985516;28;20123;-81
2022/03/07 12:24:59;;;;;;;0.15;0.15;;;;;;;;;;4986398;28;20026;-83
2022/03/07 12:27:38;;;;;;;0.32;0.32;;;;;;;;;;4990198;28;20109;-81
2022/03/07 12:30:26;;;;;;;0.65;0.63;;;;;;;;;;4989890;28;20033;-80
2022/03/07 12:32:55;;;;;;;0.73;0.35;;;;;;;;;;4984404;28;20408;-79
2022/03/07 12:35:23;;;;;;;0.10;0.10;;;;;;;;;;4983941;28;20506;-82
2022/03/07 12:37:48;;;;;;;0.57;0.52;;;;;;;;;;4999795;28;20027;-81
2022/03/07 12:40:13;;;;;;;1.13;0.77;;;;;;;;;;4986976;28;20032;-79
2022/03/07 12:42:42;;;;;;;0.28;0.28;;;;;;;;;;4984532;28;20026;-79
2022/03/07 12:45:08;;;;;;;0.38;0.38;;;;;;;;;;4988191;28;20022;-89
2022/03/07 12:47:46;;;;;;;1.77;0.50;;;;;;;;;;4985575;28;20497;-83
2022/03/07 12:50:12;;;;;;;0.28;0.28;;;;;;;;;;4991079;28;20030;-82
2022/03/07 12:52:41;;;;;;;1.35;0.52;;;;;;;;;;4987137;28;20030;-79
2022/03/07 12:55:14;;;;;;;0.43;0.40;;;;;;;;;;4987262;28;20030;-79
2022/03/07 12:57:39;;;;;;;0.38;0.38;;;;;;;;;;5008136;28;20023;-79
2022/03/07 13:00:17;;;;;;;0.85;0.85;;;;;;;;;;4989053;28;20028;-82
2022/03/07 13:02:45;;;;;;;0.70;0.65;;;;;;;;;;4990854;28;20034;-80
2022/03/07 13:05:13;;;;;;;1.23;0.63;;;;;;;;;;4985381;28;20429;-81
2022/03/07 13:07:39;;;;;;;0.30;0.28;;;;;;;;;;4986522;28;20029;-82
2022/03/07 13:10:12;;;;;;;0.30;0.25;;;;;;;;;;4986763;28;20030;-81
2022/03/07 13:12:38;;;;;;;0.15;0.15;;;;;;;;;;4978958;28;20022;-81
2022/03/07 13:15:07;;;;;;;0.73;0.73;;;;;;;;;;4992255;28;20042;-82
2022/03/07 13:17:33;;;;;;;0.28;0.28;;;;;;;;;;4985956;28;20559;-81
2022/03/07 13:19:58;;;;;;;0.28;0.28;;;;;;;;;;4985111;28;20022;-80
2022/03/07 13:22:24;;;;;;;0.60;0.60;;;;;;;;;;4989747;28;20625;-82
2022/03/07 13:24:53;;;;;;;0.22;0.22;;;;;;;;;;4985866;28;20669;-82
2022/03/07 13:27:22;;;;;;;1.80;0.50;;;;;;;;;;5005779;28;20026;-80
2022/03/07 13:30:01;;;;;;;0.50;0.50;;;;;;;;;;4986983;28;20031;-80
2022/03/07 13:32:43;;;;;;;0.38;0.32;;;;;;;;;;4987474;28;20026;-80
2022/03/07 13:35:23;;;;;;;8.98;0.90;;;;;;;;;;4999240;28;20415;-81
2022/03/07 13:37:52;;;;;;;0.30;0.30;;;;;;;;;;4987250;28;20035;-82
2022/03/07 13:40:27;;;;;;;0.40;0.40;;;;;;;;;;4985895;28;20045;-82
2022/03/07 13:42:56;;;;;;;0.10;0.10;;;;;;;;;;4985266;28;20026;-80
2022/03/07 13:45:46;;;;;;;0.32;0.32;;;;;;;;;;4981977;28;20081;-79
2022/03/07 13:48:14;;;;;;;0.10;0.10;;;;;;;;;;4986657;28;20050;-82
2022/03/07 13:50:47;;;;;;;1.35;0.88;;;;;;;;;;4988122;28;20492;-91
2022/03/07 13:53:20;;;;;;;0.40;0.40;;;;;;;;;;4984378;28;20463;-80
2022/03/07 13:55:50;;;;;;;0.30;0.30;;;;;;;;;;4983076;28;20034;-78
2022/03/07 13:58:28;;;;;;;0.47;0.38;;;;;;;;;;4986891;28;20394;-81
2022/03/07 14:01:10;;;;;;;1.35;0.70;;;;;;;;;;5001864;28;20034;-80
2022/03/07 14:03:35;;;;;;;0.50;0.20;;;;;;;;;;4986400;28;20586;-80
2022/03/07 14:06:01;;;;;;;0.03;0.03;;;;;;;;;;4980830;28;20031;-79
2022/03/07 14:08:42;;;;;;;0.22;0.22;;;;;;;;;;4981082;28;20339;-81
2022/03/07 14:11:13;;;;;;;1.98;1.52;;;;;;;;;;4980470;28;20030;-80
2022/03/07 14:13:50;;;;;;;1.48;0.85;;;;;;;;;;4980425;28;20088;-80
2022/03/07 14:16:37;;;;;;;0.05;0.05;;;;;;;;;;4998984;28;20085;-80
2022/03/07 14:19:05;;;;;;;0.22;0.22;;;;;;;;;;4980900;28;20597;-82
2022/03/07 14:21:32;;;;;;;0.10;0.10;;;;;;;;;;4981746;28;20041;-80
2022/03/07 14:24:00;;;;;;;0.00;0.00;;;;;;;;;;4986790;28;20085;-83
2022/03/07 14:26:29;;;;;;;0.30;0.30;;;;;;;;;;4981724;28;20026;-84
2022/03/07 14:29:02;;;;;;;0.00;0.00;;;;;;;;;;4979921;28;20046;-84
2022/03/07 14:31:28;;;;;;;0.85;0.38;;;;;;;;;;4991944;28;20116;-84
2022/03/07 14:33:54;;;;;;;0.80;0.52;;;;;;;;;;5009592;28;20495;-83
2022/03/07 14:36:25;;;;;;;0.30;0.30;;;;;;;;;;4975179;28;20075;-82
2022/03/07 14:38:50;;;;;;;1.05;1.05;;;;;;;;;;4987062;28;20054;-82
2022/03/07 14:41:17;;;;;;;0.60;0.60;;;;;;;;;;4994751;28;20057;-83
2022/03/07 14:43:45;;;;;;;1.67;0.40;;;;;;;;;;4995209;28;20061;-82
2022/03/07 14:46:10;;;;;;;0.20;0.20;;;;;;;;;;4981718;28;20113;-80